Kalam Weather



Kalam's Current Weather

Temprature 4.05o clear sky

clear sky

Rain: 0 %

Min Temprature4.05o
Max Temprature4.05o
Humidity78
Wind Speed0.27 m/h
Sun Rise05:34:44
Sun Set18:50:31
Current Time: 23-Aug-2019 05:22:40
Lat/Lon: 35.48, 72.59




Kalam's Geo Location



Kalam's Weather Forecast

Time Overall Temp Min Temp Max Temp Humidity Wind Speed Rain
23-Aug-2019 (Fri)
08:00:00 clear sky 10.710 10.707 10.710 61 0.66 m/h 0 %
11:00:00 clear sky 15.350 15.350 15.350 45 2.61 m/h 0 %
14:00:00 light rain 15.730 15.730 15.731 45 4.21 m/h 75 %
17:00:00 light rain 14.810 14.810 14.811 45 3.29 m/h 50 %
20:00:00 light rain 7.650 7.650 7.650 86 1.07 m/h 50 %
23:00:00 light rain 6.342 6.342 6.342 90 0.8 m/h 13 %
24-Aug-2019 (Sat)
02:00:00 light rain 5.931 5.931 5.931 83 2.3 m/h 6 %
05:00:00 clear sky 4.755 4.755 4.755 82 1.03 m/h 0 %
08:00:00 clear sky 11.297 11.297 11.297 59 0.43 m/h 0 %
11:00:00 clear sky 15.769 15.769 15.769 38 2.44 m/h 0 %
14:00:00 light rain 15.669 15.669 15.669 44 3.66 m/h 69 %
17:00:00 light rain 14.023 14.023 14.023 50 2.89 m/h 100 %
20:00:00 light rain 8.750 8.750 8.750 77 1.43 m/h 56 %
23:00:00 broken clouds 7.169 7.169 7.169 77 0.93 m/h 0 %
25-Aug-2019 (Sun)
02:00:00 clear sky 5.831 5.831 5.831 78 0.47 m/h 0 %
05:00:00 clear sky 5.057 5.057 5.057 76 0.69 m/h 0 %
08:00:00 clear sky 12.114 12.114 12.114 52 0.73 m/h 0 %
11:00:00 clear sky 16.316 16.316 16.316 39 2.17 m/h 0 %
14:00:00 light rain 15.650 15.650 15.650 52 3.56 m/h 106 %
17:00:00 light rain 13.050 13.050 13.050 64 2.11 m/h 263 %
20:00:00 light rain 9.281 9.281 9.281 85 0.8 m/h 69 %
23:00:00 light rain 8.811 8.811 8.811 82 0.8 m/h 25 %
26-Aug-2019 (Mon)
02:00:00 overcast clouds 7.165 7.165 7.165 88 0.74 m/h 0 %
05:00:00 broken clouds 5.450 5.450 5.450 90 0.37 m/h 0 %
08:00:00 clear sky 11.667 11.667 11.667 68 1.09 m/h 0 %
11:00:00 light rain 16.172 16.172 16.172 50 2.68 m/h 31 %
14:00:00 light rain 16.284 16.284 16.284 58 3.94 m/h 150 %
17:00:00 light rain 13.920 13.920 13.920 71 2.76 m/h 163 %
20:00:00 light rain 9.772 9.772 9.772 91 0.87 m/h 100 %
23:00:00 light rain 8.014 8.014 8.014 91 0.16 m/h 25 %
27-Aug-2019 (Tue)
02:00:00 light rain 7.116 7.116 7.116 85 0.55 m/h 13 %
05:00:00 light rain 6.450 6.450 6.450 82 0.82 m/h 6 %
08:00:00 clear sky 13.035 13.035 13.035 59 0.44 m/h 0 %
11:00:00 light rain 16.136 16.136 16.136 52 3.24 m/h 75 %
14:00:00 light rain 16.836 16.836 16.836 50 3.3 m/h 188 %
17:00:00 light rain 15.865 15.865 15.865 49 2.53 m/h 106 %
20:00:00 clear sky 8.850 8.850 8.850 87 0.89 m/h 0 %
23:00:00 clear sky 7.550 7.550 7.550 90 0.65 m/h 0 %
28-Aug-2019 (Wed)
02:00:00 clear sky 6.557 6.557 6.557 89 0.44 m/h 0 %
05:00:00 clear sky 6.572 6.572 6.572 82 1.9 m/h 0 %

Famous Cities (61)